sensor_id;sensor_type;location;lat;lon;timestamp;pressure;altitude;pressure_sealevel;temperature;humidity
81354;BME280;70810;52.038;8.524;2023-08-20T00:01:21;100814.66;;;20.19;82.82
81354;BME280;70810;52.038;8.524;2023-08-20T00:03:49;100815.78;;;20.17;82.96
81354;BME280;70810;52.038;8.524;2023-08-20T00:06:18;100816.16;;;20.23;82.69
81354;BME280;70810;52.038;8.524;2023-08-20T00:08:46;100824.22;;;20.25;83.21
81354;BME280;70810;52.038;8.524;2023-08-20T00:11:13;100823.22;;;20.15;82.76
81354;BME280;70810;52.038;8.524;2023-08-20T00:13:40;100820.47;;;20.26;82.33
81354;BME280;70810;52.038;8.524;2023-08-20T00:16:08;100824.94;;;20.16;81.85
81354;BME280;70810;52.038;8.524;2023-08-20T00:18:36;100828.75;;;20.02;82.37
81354;BME280;70810;52.038;8.524;2023-08-20T00:21:04;100837.53;;;19.94;82.35
81354;BME280;70810;52.038;8.524;2023-08-20T00:23:34;100831.34;;;19.92;81.93
81354;BME280;70810;52.038;8.524;2023-08-20T00:26:01;100842.75;;;19.86;82.24
81354;BME280;70810;52.038;8.524;2023-08-20T00:28:29;100843.22;;;19.80;81.54
81354;BME280;70810;52.038;8.524;2023-08-20T00:30:58;100839.38;;;19.82;82.25
81354;BME280;70810;52.038;8.524;2023-08-20T00:33:26;100836.66;;;19.82;82.67
81354;BME280;70810;52.038;8.524;2023-08-20T00:35:53;100841.03;;;19.96;81.71
81354;BME280;70810;52.038;8.524;2023-08-20T00:38:20;100837.56;;;20.05;80.64
81354;BME280;70810;52.038;8.524;2023-08-20T00:40:48;100833.34;;;20.01;80.50
81354;BME280;70810;52.038;8.524;2023-08-20T00:43:15;100832.84;;;20.07;80.16
81354;BME280;70810;52.038;8.524;2023-08-20T00:45:42;100838.78;;;20.12;79.06
81354;BME280;70810;52.038;8.524;2023-08-20T00:48:09;100829.50;;;20.04;79.12
81354;BME280;70810;52.038;8.524;2023-08-20T00:50:38;100830.50;;;20.03;79.16
81354;BME280;70810;52.038;8.524;2023-08-20T00:53:10;100828.47;;;19.82;80.51
81354;BME280;70810;52.038;8.524;2023-08-20T00:55:38;100826.81;;;19.68;81.23
81354;BME280;70810;52.038;8.524;2023-08-20T00:58:06;100828.81;;;19.66;80.38
81354;BME280;70810;52.038;8.524;2023-08-20T01:00:34;100838.56;;;19.57;80.67
81354;BME280;70810;52.038;8.524;2023-08-20T01:03:00;100836.53;;;19.48;81.36
81354;BME280;70810;52.038;8.524;2023-08-20T01:05:32;100840.53;;;19.31;81.80
81354;BME280;70810;52.038;8.524;2023-08-20T01:08:09;100832.38;;;19.20;83.60
81354;BME280;70810;52.038;8.524;2023-08-20T01:10:43;100837.41;;;19.13;83.87
81354;BME280;70810;52.038;8.524;2023-08-20T01:13:14;100839.72;;;19.07;84.53
81354;BME280;70810;52.038;8.524;2023-08-20T01:15:41;100833.75;;;19.01;84.88
81354;BME280;70810;52.038;8.524;2023-08-20T01:18:08;100838.44;;;18.99;84.91
81354;BME280;70810;52.038;8.524;2023-08-20T01:20:41;100831.59;;;18.94;84.96
81354;BME280;70810;52.038;8.524;2023-08-20T01:23:56;100833.13;;;18.98;85.26
81354;BME280;70810;52.038;8.524;2023-08-20T01:26:40;100832.59;;;18.93;86.00
81354;BME280;70810;52.038;8.524;2023-08-20T01:29:16;100821.53;;;18.83;86.62
81354;BME280;70810;52.038;8.524;2023-08-20T01:31:44;100830.38;;;18.74;86.62
81354;BME280;70810;52.038;8.524;2023-08-20T01:34:11;100827.22;;;18.67;87.39
81354;BME280;70810;52.038;8.524;2023-08-20T01:36:39;100829.44;;;18.62;87.41
81354;BME280;70810;52.038;8.524;2023-08-20T01:39:05;100822.56;;;18.56;87.53
81354;BME280;70810;52.038;8.524;2023-08-20T01:41:33;100820.22;;;18.52;88.64
81354;BME280;70810;52.038;8.524;2023-08-20T01:44:00;100814.38;;;18.45;88.39
81354;BME280;70810;52.038;8.524;2023-08-20T01:46:28;100821.19;;;18.38;88.98
81354;BME280;70810;52.038;8.524;2023-08-20T01:48:55;100815.03;;;18.36;88.94
81354;BME280;70810;52.038;8.524;2023-08-20T01:51:22;100825.88;;;18.36;89.02
81354;BME280;70810;52.038;8.524;2023-08-20T01:53:49;100828.06;;;18.31;89.08
81354;BME280;70810;52.038;8.524;2023-08-20T01:56:16;100831.78;;;18.30;89.07
81354;BME280;70810;52.038;8.524;2023-08-20T01:58:43;100821.25;;;18.25;89.22
81354;BME280;70810;52.038;8.524;2023-08-20T02:01:10;100825.47;;;18.29;88.74
81354;BME280;70810;52.038;8.524;2023-08-20T02:03:38;100825.94;;;18.23;88.75
81354;BME280;70810;52.038;8.524;2023-08-20T02:06:05;100823.84;;;18.26;88.82
81354;BME280;70810;52.038;8.524;2023-08-20T02:08:32;100824.97;;;18.11;89.66
81354;BME280;70810;52.038;8.524;2023-08-20T02:11:00;100822.00;;;18.14;89.20
81354;BME280;70810;52.038;8.524;2023-08-20T02:13:26;100824.84;;;18.13;89.21
81354;BME280;70810;52.038;8.524;2023-08-20T02:15:57;100826.56;;;18.14;89.20
81354;BME280;70810;52.038;8.524;2023-08-20T02:18:24;100831.69;;;18.18;89.25
81354;BME280;70810;52.038;8.524;2023-08-20T02:20:52;100827.88;;;18.08;89.38
81354;BME280;70810;52.038;8.524;2023-08-20T02:23:19;100828.75;;;18.08;89.40
81354;BME280;70810;52.038;8.524;2023-08-20T02:25:46;100826.13;;;18.07;89.82
81354;BME280;70810;52.038;8.524;2023-08-20T02:28:13;100836.13;;;18.06;89.47
81354;BME280;70810;52.038;8.524;2023-08-20T02:30:41;100842.22;;;18.10;89.25
81354;BME280;70810;52.038;8.524;2023-08-20T02:33:08;100848.28;;;18.14;88.83
81354;BME280;70810;52.038;8.524;2023-08-20T02:35:35;100853.28;;;18.07;89.13
81354;BME280;70810;52.038;8.524;2023-08-20T02:38:03;100857.53;;;18.11;88.83
81354;BME280;70810;52.038;8.524;2023-08-20T02:40:30;100859.81;;;18.04;89.05
81354;BME280;70810;52.038;8.524;2023-08-20T02:42:57;100853.81;;;18.12;88.80
81354;BME280;70810;52.038;8.524;2023-08-20T02:45:24;100850.03;;;18.15;88.37
81354;BME280;70810;52.038;8.524;2023-08-20T02:47:51;100849.50;;;18.10;88.47
81354;BME280;70810;52.038;8.524;2023-08-20T02:50:23;100847.44;;;18.00;88.77
81354;BME280;70810;52.038;8.524;2023-08-20T02:52:52;100847.63;;;17.97;88.94
81354;BME280;70810;52.038;8.524;2023-08-20T02:55:20;100851.13;;;17.86;89.73
81354;BME280;70810;52.038;8.524;2023-08-20T02:57:47;100854.38;;;17.92;89.43
81354;BME280;70810;52.038;8.524;2023-08-20T03:00:14;100861.97;;;17.86;89.60
81354;BME280;70810;52.038;8.524;2023-08-20T03:02:41;100860.31;;;17.84;89.55
81354;BME280;70810;52.038;8.524;2023-08-20T03:05:08;100862.41;;;17.93;89.08
81354;BME280;70810;52.038;8.524;2023-08-20T03:07:35;100872.84;;;17.86;89.40
81354;BME280;70810;52.038;8.524;2023-08-20T03:10:02;100872.81;;;17.74;90.08
81354;BME280;70810;52.038;8.524;2023-08-20T03:12:30;100874.75;;;17.84;89.56
81354;BME280;70810;52.038;8.524;2023-08-20T03:14:58;100881.16;;;17.83;89.91
81354;BME280;70810;52.038;8.524;2023-08-20T03:17:25;100872.91;;;17.85;89.94
81354;BME280;70810;52.038;8.524;2023-08-20T03:19:57;100872.16;;;17.83;90.12
81354;BME280;70810;52.038;8.524;2023-08-20T03:22:24;100858.38;;;17.86;89.99
81354;BME280;70810;52.038;8.524;2023-08-20T03:24:51;100862.63;;;18.03;88.70
81354;BME280;70810;52.038;8.524;2023-08-20T03:27:18;100868.50;;;17.97;88.71
81354;BME280;70810;52.038;8.524;2023-08-20T03:29:47;100866.53;;;18.12;88.40
81354;BME280;70810;52.038;8.524;2023-08-20T03:32:14;100868.41;;;18.11;88.35
81354;BME280;70810;52.038;8.524;2023-08-20T03:34:41;100866.97;;;18.05;88.51
81354;BME280;70810;52.038;8.524;2023-08-20T03:37:07;100870.47;;;18.07;88.57
81354;BME280;70810;52.038;8.524;2023-08-20T03:39:34;100864.16;;;18.07;88.05
81354;BME280;70810;52.038;8.524;2023-08-20T03:42:01;100867.84;;;17.93;88.79
81354;BME280;70810;52.038;8.524;2023-08-20T03:44:27;100867.63;;;18.09;87.86
81354;BME280;70810;52.038;8.524;2023-08-20T03:46:56;100869.31;;;17.84;88.91
81354;BME280;70810;52.038;8.524;2023-08-20T03:49:23;100878.00;;;17.77;89.20
81354;BME280;70810;52.038;8.524;2023-08-20T03:51:50;100878.34;;;17.72;89.54
81354;BME280;70810;52.038;8.524;2023-08-20T03:54:17;100881.25;;;17.69;89.60
81354;BME280;70810;52.038;8.524;2023-08-20T03:56:43;100880.91;;;17.61;89.75
81354;BME280;70810;52.038;8.524;2023-08-20T03:59:10;100883.81;;;17.58;89.96
81354;BME280;70810;52.038;8.524;2023-08-20T04:01:37;100889.56;;;17.53;90.11
81354;BME280;70810;52.038;8.524;2023-08-20T04:04:05;100896.72;;;17.54;90.41
81354;BME280;70810;52.038;8.524;2023-08-20T04:06:32;100895.13;;;17.51;90.73
81354;BME280;70810;52.038;8.524;2023-08-20T04:08:58;100896.94;;;17.51;91.08
81354;BME280;70810;52.038;8.524;2023-08-20T04:11:25;100899.66;;;17.51;91.24
81354;BME280;70810;52.038;8.524;2023-08-20T04:13:52;100899.66;;;17.51;91.46
81354;BME280;70810;52.038;8.524;2023-08-20T04:16:18;100901.41;;;17.52;91.04
81354;BME280;70810;52.038;8.524;2023-08-20T04:18:45;100894.25;;;17.64;90.40
81354;BME280;70810;52.038;8.524;2023-08-20T04:21:13;100906.72;;;17.53;90.81
81354;BME280;70810;52.038;8.524;2023-08-20T04:23:40;100899.66;;;17.51;90.81
81354;BME280;70810;52.038;8.524;2023-08-20T04:26:07;100903.34;;;17.50;91.49
81354;BME280;70810;52.038;8.524;2023-08-20T04:28:34;100907.69;;;17.52;91.37
81354;BME280;70810;52.038;8.524;2023-08-20T04:31:01;100896.84;;;17.52;90.92
81354;BME280;70810;52.038;8.524;2023-08-20T04:33:28;100896.19;;;17.49;91.21
81354;BME280;70810;52.038;8.524;2023-08-20T04:35:55;100893.91;;;17.56;91.29
81354;BME280;70810;52.038;8.524;2023-08-20T04:38:23;100910.28;;;17.54;91.26
81354;BME280;70810;52.038;8.524;2023-08-20T04:40:50;100917.47;;;17.68;90.81
81354;BME280;70810;52.038;8.524;2023-08-20T04:43:17;100916.63;;;17.80;90.60
81354;BME280;70810;52.038;8.524;2023-08-20T04:45:43;100920.28;;;17.94;89.60
81354;BME280;70810;52.038;8.524;2023-08-20T04:48:10;100917.38;;;18.22;88.72
81354;BME280;70810;52.038;8.524;2023-08-20T04:50:37;100914.53;;;18.50;87.32
81354;BME280;70810;52.038;8.524;2023-08-20T04:53:03;100915.13;;;18.92;85.39
81354;BME280;70810;52.038;8.524;2023-08-20T04:55:32;100928.53;;;19.43;83.25
81354;BME280;70810;52.038;8.524;2023-08-20T04:57:58;100933.34;;;19.99;80.82
81354;BME280;70810;52.038;8.524;2023-08-20T05:00:26;100931.94;;;20.29;79.06
81354;BME280;70810;52.038;8.524;2023-08-20T05:02:54;100917.56;;;20.27;79.16
81354;BME280;70810;52.038;8.524;2023-08-20T05:05:21;100913.69;;;20.07;79.80
81354;BME280;70810;52.038;8.524;2023-08-20T05:07:48;100921.59;;;19.99;79.80
81354;BME280;70810;52.038;8.524;2023-08-20T05:10:15;100914.97;;;19.54;81.21
81354;BME280;70810;52.038;8.524;2023-08-20T05:12:43;100912.16;;;19.08;83.56
81354;BME280;70810;52.038;8.524;2023-08-20T05:15:10;100897.56;;;19.09;83.85
81354;BME280;70810;52.038;8.524;2023-08-20T05:17:37;100898.44;;;19.33;82.63
81354;BME280;70810;52.038;8.524;2023-08-20T05:20:05;100906.00;;;19.41;82.74
81354;BME280;70810;52.038;8.524;2023-08-20T05:22:34;100900.03;;;19.96;80.68
81354;BME280;70810;52.038;8.524;2023-08-20T05:25:01;100903.66;;;21.20;76.26
81354;BME280;70810;52.038;8.524;2023-08-20T05:27:27;100905.56;;;22.67;70.63
81354;BME280;70810;52.038;8.524;2023-08-20T05:29:55;100913.69;;;24.17;65.64
81354;BME280;70810;52.038;8.524;2023-08-20T05:32:22;100911.91;;;25.28;61.91
81354;BME280;70810;52.038;8.524;2023-08-20T05:34:49;100904.09;;;26.40;57.95
81354;BME280;70810;52.038;8.524;2023-08-20T05:37:15;100911.59;;;27.58;54.18
81354;BME280;70810;52.038;8.524;2023-08-20T05:39:43;100909.03;;;27.81;52.46
81354;BME280;70810;52.038;8.524;2023-08-20T05:42:10;100914.59;;;28.78;50.35
81354;BME280;70810;52.038;8.524;2023-08-20T05:44:37;100908.47;;;29.85;46.32
81354;BME280;70810;52.038;8.524;2023-08-20T05:47:05;100909.06;;;30.48;45.78
81354;BME280;70810;52.038;8.524;2023-08-20T05:49:32;100913.00;;;30.98;41.20
81354;BME280;70810;52.038;8.524;2023-08-20T05:51:59;100915.75;;;30.83;41.19
81354;BME280;70810;52.038;8.524;2023-08-20T05:54:26;100921.00;;;31.08;40.41
81354;BME280;70810;52.038;8.524;2023-08-20T05:56:52;100914.78;;;31.42;41.03
81354;BME280;70810;52.038;8.524;2023-08-20T05:59:19;100921.16;;;32.01;39.31
81354;BME280;70810;52.038;8.524;2023-08-20T06:01:46;100918.34;;;32.51;37.50
81354;BME280;70810;52.038;8.524;2023-08-20T06:04:14;100904.13;;;33.09;35.48
81354;BME280;70810;52.038;8.524;2023-08-20T06:06:41;100901.06;;;32.56;36.71
81354;BME280;70810;52.038;8.524;2023-08-20T06:09:07;100893.75;;;31.70;38.12
81354;BME280;70810;52.038;8.524;2023-08-20T06:11:34;100907.19;;;33.21;34.86
81354;BME280;70810;52.038;8.524;2023-08-20T06:14:01;100904.75;;;33.73;33.43
81354;BME280;70810;52.038;8.524;2023-08-20T06:16:28;100912.03;;;34.07;34.06
81354;BME280;70810;52.038;8.524;2023-08-20T06:18:54;100928.97;;;35.18;33.51
81354;BME280;70810;52.038;8.524;2023-08-20T06:21:22;100926.16;;;35.63;30.84
81354;BME280;70810;52.038;8.524;2023-08-20T06:23:49;100930.50;;;36.16;29.93
81354;BME280;70810;52.038;8.524;2023-08-20T06:26:16;100927.13;;;36.07;30.60
81354;BME280;70810;52.038;8.524;2023-08-20T06:28:42;100921.53;;;35.82;30.46
81354;BME280;70810;52.038;8.524;2023-08-20T06:31:12;100935.13;;;35.33;31.27
81354;BME280;70810;52.038;8.524;2023-08-20T06:33:39;100939.38;;;34.84;32.64
81354;BME280;70810;52.038;8.524;2023-08-20T06:36:06;100927.25;;;33.91;33.31
81354;BME280;70810;52.038;8.524;2023-08-20T06:38:34;100918.31;;;33.27;35.21
81354;BME280;70810;52.038;8.524;2023-08-20T06:41:01;100925.47;;;34.70;32.74
81354;BME280;70810;52.038;8.524;2023-08-20T06:43:27;100935.59;;;34.45;33.05
81354;BME280;70810;52.038;8.524;2023-08-20T06:45:54;100932.03;;;35.03;33.15
81354;BME280;70810;52.038;8.524;2023-08-20T06:48:21;100933.72;;;35.10;32.34
81354;BME280;70810;52.038;8.524;2023-08-20T06:50:50;100928.91;;;34.72;33.67
81354;BME280;70810;52.038;8.524;2023-08-20T06:53:16;100929.28;;;35.41;32.32
81354;BME280;70810;52.038;8.524;2023-08-20T06:55:44;100928.38;;;35.09;33.43
81354;BME280;70810;52.038;8.524;2023-08-20T06:58:11;100918.88;;;34.45;33.53
81354;BME280;70810;52.038;8.524;2023-08-20T07:00:38;100922.25;;;34.67;33.70
81354;BME280;70810;52.038;8.524;2023-08-20T07:03:04;100923.69;;;35.48;32.39
81354;BME280;70810;52.038;8.524;2023-08-20T07:05:31;100925.88;;;35.39;32.23
81354;BME280;70810;52.038;8.524;2023-08-20T07:07:58;100924.25;;;35.11;32.57
81354;BME280;70810;52.038;8.524;2023-08-20T07:10:25;100927.19;;;35.30;32.77
81354;BME280;70810;52.038;8.524;2023-08-20T07:12:53;100924.22;;;35.63;32.16
81354;BME280;70810;52.038;8.524;2023-08-20T07:15:20;100917.03;;;36.06;31.57
81354;BME280;70810;52.038;8.524;2023-08-20T07:17:47;100920.06;;;34.96;33.16
81354;BME280;70810;52.038;8.524;2023-08-20T07:20:14;100917.56;;;35.64;32.66
81354;BME280;70810;52.038;8.524;2023-08-20T07:22:41;100923.81;;;36.42;31.00
81354;BME280;70810;52.038;8.524;2023-08-20T07:25:08;100921.81;;;36.68;30.71
81354;BME280;70810;52.038;8.524;2023-08-20T07:27:35;100919.25;;;35.65;32.82
81354;BME280;70810;52.038;8.524;2023-08-20T07:30:04;100921.41;;;34.80;33.64
81354;BME280;70810;52.038;8.524;2023-08-20T07:32:32;100915.31;;;35.48;32.38
81354;BME280;70810;52.038;8.524;2023-08-20T07:34:59;100915.88;;;35.11;33.49
81354;BME280;70810;52.038;8.524;2023-08-20T07:37:28;100916.03;;;36.44;32.29
81354;BME280;70810;52.038;8.524;2023-08-20T07:39:55;100923.88;;;35.85;32.77
81354;BME280;70810;52.038;8.524;2023-08-20T07:42:21;100920.94;;;34.83;34.33
81354;BME280;70810;52.038;8.524;2023-08-20T07:44:48;100911.41;;;34.18;35.99
81354;BME280;70810;52.038;8.524;2023-08-20T07:47:18;100906.41;;;34.74;34.43
81354;BME280;70810;52.038;8.524;2023-08-20T07:49:44;100902.41;;;35.08;34.37
81354;BME280;70810;52.038;8.524;2023-08-20T07:52:11;100905.69;;;35.69;32.93
81354;BME280;70810;52.038;8.524;2023-08-20T07:54:38;100903.19;;;35.61;33.16
81354;BME280;70810;52.038;8.524;2023-08-20T07:57:05;100905.63;;;34.07;36.47
81354;BME280;70810;52.038;8.524;2023-08-20T07:59:32;100903.88;;;35.56;33.62
81354;BME280;70810;52.038;8.524;2023-08-20T08:01:59;100908.78;;;35.29;34.01
81354;BME280;70810;52.038;8.524;2023-08-20T08:04:28;100908.69;;;35.42;33.98
81354;BME280;70810;52.038;8.524;2023-08-20T08:06:57;100904.97;;;34.25;36.02
81354;BME280;70810;52.038;8.524;2023-08-20T08:09:27;100902.56;;;33.55;36.82
81354;BME280;70810;52.038;8.524;2023-08-20T08:11:58;100905.63;;;33.80;37.71
81354;BME280;70810;52.038;8.524;2023-08-20T08:14:25;100910.28;;;33.59;38.60
81354;BME280;70810;52.038;8.524;2023-08-20T08:16:52;100902.44;;;33.15;39.30
81354;BME280;70810;52.038;8.524;2023-08-20T08:19:19;100910.13;;;32.08;41.74
81354;BME280;70810;52.038;8.524;2023-08-20T08:21:47;100906.28;;;31.08;42.52
81354;BME280;70810;52.038;8.524;2023-08-20T08:24:15;100903.25;;;30.73;43.70
81354;BME280;70810;52.038;8.524;2023-08-20T08:26:41;100913.22;;;29.68;47.03
81354;BME280;70810;52.038;8.524;2023-08-20T08:29:08;100909.56;;;29.75;46.59
81354;BME280;70810;52.038;8.524;2023-08-20T08:31:35;100906.94;;;29.28;48.72
81354;BME280;70810;52.038;8.524;2023-08-20T08:34:02;100907.53;;;29.15;49.55
81354;BME280;70810;52.038;8.524;2023-08-20T08:36:30;100913.72;;;27.97;50.89
81354;BME280;70810;52.038;8.524;2023-08-20T08:38:59;100909.56;;;27.84;52.39
81354;BME280;70810;52.038;8.524;2023-08-20T08:41:25;100911.13;;;27.95;52.02
81354;BME280;70810;52.038;8.524;2023-08-20T08:43:53;100905.41;;;27.47;51.13
81354;BME280;70810;52.038;8.524;2023-08-20T08:46:23;100907.72;;;27.17;51.24
81354;BME280;70810;52.038;8.524;2023-08-20T08:48:51;100897.59;;;27.26;51.59
81354;BME280;70810;52.038;8.524;2023-08-20T08:51:18;100909.72;;;27.50;50.18
81354;BME280;70810;52.038;8.524;2023-08-20T08:53:46;100908.16;;;27.56;51.05
81354;BME280;70810;52.038;8.524;2023-08-20T08:56:14;100914.38;;;27.66;50.40
81354;BME280;70810;52.038;8.524;2023-08-20T08:58:41;100909.91;;;27.81;51.93
81354;BME280;70810;52.038;8.524;2023-08-20T09:01:08;100913.47;;;27.32;52.60
81354;BME280;70810;52.038;8.524;2023-08-20T09:03:35;100908.38;;;27.03;53.16
81354;BME280;70810;52.038;8.524;2023-08-20T09:06:02;100911.03;;;26.78;51.94
81354;BME280;70810;52.038;8.524;2023-08-20T09:08:35;100913.28;;;26.83;52.79
81354;BME280;70810;52.038;8.524;2023-08-20T09:11:04;100908.59;;;26.41;53.26
81354;BME280;70810;52.038;8.524;2023-08-20T09:13:36;100900.72;;;26.80;52.44
81354;BME280;70810;52.038;8.524;2023-08-20T09:16:04;100895.56;;;27.28;49.65
81354;BME280;70810;52.038;8.524;2023-08-20T09:18:31;100900.84;;;27.22;50.53
81354;BME280;70810;52.038;8.524;2023-08-20T09:20:58;100899.91;;;26.96;52.39
81354;BME280;70810;52.038;8.524;2023-08-20T09:23:28;100906.28;;;27.05;51.53
81354;BME280;70810;52.038;8.524;2023-08-20T09:25:56;100900.19;;;27.28;50.33
81354;BME280;70810;52.038;8.524;2023-08-20T09:28:22;100900.28;;;27.10;49.51
81354;BME280;70810;52.038;8.524;2023-08-20T09:30:58;100894.25;;;27.06;52.44
81354;BME280;70810;52.038;8.524;2023-08-20T09:33:27;100888.91;;;26.62;51.39
81354;BME280;70810;52.038;8.524;2023-08-20T09:35:54;100900.22;;;26.85;52.97
81354;BME280;70810;52.038;8.524;2023-08-20T09:38:22;100887.28;;;26.77;51.95
81354;BME280;70810;52.038;8.524;2023-08-20T09:40:49;100886.09;;;26.80;49.35
81354;BME280;70810;52.038;8.524;2023-08-20T09:43:18;100884.06;;;26.98;49.88
81354;BME280;70810;52.038;8.524;2023-08-20T09:45:47;100892.34;;;26.90;51.68
81354;BME280;70810;52.038;8.524;2023-08-20T09:48:18;100897.88;;;27.07;50.67
81354;BME280;70810;52.038;8.524;2023-08-20T09:50:46;100893.66;;;27.29;49.18
81354;BME280;70810;52.038;8.524;2023-08-20T09:53:19;100901.19;;;27.18;49.39
81354;BME280;70810;52.038;8.524;2023-08-20T09:55:50;100905.41;;;27.64;49.87
81354;BME280;70810;52.038;8.524;2023-08-20T09:58:17;100913.94;;;27.28;50.76
81354;BME280;70810;52.038;8.524;2023-08-20T10:00:48;100907.81;;;27.42;48.49
81354;BME280;70810;52.038;8.524;2023-08-20T10:03:14;100906.44;;;27.54;47.71
81354;BME280;70810;52.038;8.524;2023-08-20T10:05:47;100910.78;;;27.98;47.92
81354;BME280;70810;52.038;8.524;2023-08-20T10:08:19;100913.19;;;28.18;49.33
81354;BME280;70810;52.038;8.524;2023-08-20T10:10:49;100912.69;;;28.06;50.15
81354;BME280;70810;52.038;8.524;2023-08-20T10:13:17;100913.28;;;27.34;49.19
81354;BME280;70810;52.038;8.524;2023-08-20T10:15:44;100914.72;;;27.79;48.94
81354;BME280;70810;52.038;8.524;2023-08-20T10:18:13;100901.25;;;28.34;46.85
81354;BME280;70810;52.038;8.524;2023-08-20T10:20:39;100901.06;;;28.60;47.60
81354;BME280;70810;52.038;8.524;2023-08-20T10:23:11;100898.41;;;28.67;45.48
81354;BME280;70810;52.038;8.524;2023-08-20T10:25:42;100907.84;;;28.16;45.42
81354;BME280;70810;52.038;8.524;2023-08-20T10:28:13;100906.44;;;27.71;46.97
81354;BME280;70810;52.038;8.524;2023-08-20T10:31:04;100912.03;;;28.68;44.00
81354;BME280;70810;52.038;8.524;2023-08-20T10:33:34;100903.38;;;29.11;43.87
81354;BME280;70810;52.038;8.524;2023-08-20T10:36:15;100904.00;;;28.98;45.00
81354;BME280;70810;52.038;8.524;2023-08-20T10:38:54;100911.91;;;28.53;46.99
81354;BME280;70810;52.038;8.524;2023-08-20T10:41:26;100910.31;;;28.75;43.56
81354;BME280;70810;52.038;8.524;2023-08-20T10:44:00;100915.75;;;28.92;43.46
81354;BME280;70810;52.038;8.524;2023-08-20T10:46:29;100901.66;;;29.18;43.01
81354;BME280;70810;52.038;8.524;2023-08-20T10:49:06;100905.75;;;28.91;44.18
81354;BME280;70810;52.038;8.524;2023-08-20T10:51:49;100898.97;;;29.56;42.92
81354;BME280;70810;52.038;8.524;2023-08-20T10:54:18;100898.03;;;29.17;44.19
81354;BME280;70810;52.038;8.524;2023-08-20T10:56:47;100895.00;;;29.35;43.29
81354;BME280;70810;52.038;8.524;2023-08-20T10:59:16;100893.38;;;29.41;43.20
81354;BME280;70810;52.038;8.524;2023-08-20T11:01:46;100898.16;;;29.24;43.41
81354;BME280;70810;52.038;8.524;2023-08-20T11:04:15;100898.22;;;28.68;44.81
81354;BME280;70810;52.038;8.524;2023-08-20T11:06:42;100903.72;;;28.76;45.14
81354;BME280;70810;52.038;8.524;2023-08-20T11:09:10;100895.56;;;28.35;46.81
81354;BME280;70810;52.038;8.524;2023-08-20T11:11:39;100900.59;;;27.74;47.90
81354;BME280;70810;52.038;8.524;2023-08-20T11:14:07;100900.56;;;27.33;49.68
81354;BME280;70810;52.038;8.524;2023-08-20T11:16:35;100895.75;;;27.35;48.97
81354;BME280;70810;52.038;8.524;2023-08-20T11:19:02;100905.75;;;27.52;49.16
81354;BME280;70810;52.038;8.524;2023-08-20T11:21:34;100905.84;;;27.26;49.79
81354;BME280;70810;52.038;8.524;2023-08-20T11:24:01;100904.69;;;26.86;50.92
81354;BME280;70810;52.038;8.524;2023-08-20T11:26:28;100904.50;;;27.30;52.08
81354;BME280;70810;52.038;8.524;2023-08-20T11:28:56;100910.69;;;27.32;50.88
81354;BME280;70810;52.038;8.524;2023-08-20T11:31:23;100913.06;;;27.19;50.38
81354;BME280;70810;52.038;8.524;2023-08-20T11:33:50;100915.28;;;27.07;51.58
81354;BME280;70810;52.038;8.524;2023-08-20T11:36:17;100911.38;;;27.26;51.06
81354;BME280;70810;52.038;8.524;2023-08-20T11:38:49;100909.00;;;27.31;51.69
81354;BME280;70810;52.038;8.524;2023-08-20T11:41:16;100910.44;;;27.01;51.03
81354;BME280;70810;52.038;8.524;2023-08-20T11:43:50;100914.06;;;27.10;50.88
81354;BME280;70810;52.038;8.524;2023-08-20T11:46:20;100908.09;;;27.23;50.74
81354;BME280;70810;52.038;8.524;2023-08-20T11:49:00;100910.13;;;27.21;49.85
81354;BME280;70810;52.038;8.524;2023-08-20T11:51:28;100907.69;;;27.01;50.58
81354;BME280;70810;52.038;8.524;2023-08-20T11:53:55;100903.56;;;27.13;50.91
81354;BME280;70810;52.038;8.524;2023-08-20T11:56:23;100895.34;;;27.22;49.81
81354;BME280;70810;52.038;8.524;2023-08-20T11:58:50;100904.53;;;27.47;48.77
81354;BME280;70810;52.038;8.524;2023-08-20T12:01:19;100894.22;;;27.57;49.34
81354;BME280;70810;52.038;8.524;2023-08-20T12:03:46;100896.63;;;27.77;48.91
81354;BME280;70810;52.038;8.524;2023-08-20T12:06:18;100893.88;;;27.68;49.12
81354;BME280;70810;52.038;8.524;2023-08-20T12:08:46;100900.94;;;27.46;48.77
81354;BME280;70810;52.038;8.524;2023-08-20T12:11:13;100893.09;;;27.25;49.52
81354;BME280;70810;52.038;8.524;2023-08-20T12:13:41;100892.13;;;27.34;48.93
81354;BME280;70810;52.038;8.524;2023-08-20T12:16:09;100892.31;;;27.41;51.02
81354;BME280;70810;52.038;8.524;2023-08-20T12:18:39;100890.56;;;27.32;50.02
81354;BME280;70810;52.038;8.524;2023-08-20T12:21:08;100886.22;;;27.21;50.58
81354;BME280;70810;52.038;8.524;2023-08-20T12:23:36;100894.72;;;27.36;49.88
81354;BME280;70810;52.038;8.524;2023-08-20T12:26:04;100887.16;;;27.38;50.13
81354;BME280;70810;52.038;8.524;2023-08-20T12:28:31;100888.81;;;27.23;52.45
81354;BME280;70810;52.038;8.524;2023-08-20T12:30:58;100878.97;;;27.20;52.04
81354;BME280;70810;52.038;8.524;2023-08-20T12:33:26;100886.72;;;27.16;51.45
81354;BME280;70810;52.038;8.524;2023-08-20T12:35:56;100884.00;;;27.25;50.91
81354;BME280;70810;52.038;8.524;2023-08-20T12:38:22;100874.75;;;27.59;49.71
81354;BME280;70810;52.038;8.524;2023-08-20T12:40:50;100879.91;;;27.78;50.25
81354;BME280;70810;52.038;8.524;2023-08-20T12:43:17;100875.97;;;27.89;48.97
81354;BME280;70810;52.038;8.524;2023-08-20T12:45:44;100881.47;;;27.81;48.49
81354;BME280;70810;52.038;8.524;2023-08-20T12:48:10;100878.75;;;27.97;47.73
81354;BME280;70810;52.038;8.524;2023-08-20T12:50:37;100880.97;;;28.02;47.39
81354;BME280;70810;52.038;8.524;2023-08-20T12:53:05;100873.75;;;28.01;47.01
81354;BME280;70810;52.038;8.524;2023-08-20T12:55:32;100879.56;;;27.73;48.05